createdAt,value
2022-09-24T00:04:18.904Z,10.70
2022-09-24T00:09:23.812Z,10.53
2022-09-24T00:14:26.717Z,8.50
2022-09-24T00:19:30.245Z,8.37
2022-09-24T00:24:51.973Z,10.03
2022-09-24T00:29:54.919Z,8.17
2022-09-24T00:34:57.823Z,6.70
2022-09-24T00:40:02.464Z,8.63
2022-09-24T00:45:05.809Z,7.37
2022-09-24T00:50:18.033Z,7.30
2022-09-24T00:55:23.725Z,6.73
2022-09-24T01:00:27.799Z,7.90
2022-09-24T01:05:30.996Z,5.57
2022-09-24T01:10:49.092Z,6.47
2022-09-24T01:15:59.623Z,6.10
2022-09-24T01:21:22.801Z,7.00
2022-09-24T01:26:48.328Z,6.33
2022-09-24T01:32:02.563Z,5.20
2022-09-24T01:37:06.053Z,6.13
2022-09-24T01:42:11.198Z,7.40
2022-09-24T01:47:21.177Z,5.07
2022-09-24T01:52:28.775Z,4.97
2022-09-24T01:57:38.992Z,5.17
2022-09-24T02:02:48.234Z,7.53
2022-09-24T02:07:59.067Z,6.50
2022-09-24T02:13:06.829Z,7.77
2022-09-24T02:18:15.543Z,10.40
2022-09-24T02:23:20.259Z,9.57
2022-09-24T02:28:23.208Z,6.13
2022-09-24T02:33:47.924Z,6.63
2022-09-24T02:38:50.860Z,7.73
2022-09-24T02:43:54.095Z,5.50
2022-09-24T02:48:58.445Z,6.17
2022-09-24T02:54:01.851Z,7.80
2022-09-24T02:59:05.021Z,6.77
2022-09-24T03:04:09.473Z,8.90
2022-09-24T03:09:13.033Z,6.10
2022-09-24T03:14:16.021Z,6.20
2022-09-24T03:19:20.318Z,6.47
2022-09-24T03:24:23.453Z,5.37
2022-09-24T03:29:40.292Z,5.90
2022-09-24T03:34:44.552Z,5.50
2022-09-24T03:39:47.411Z,7.00
2022-09-24T03:44:50.567Z,6.37
2022-09-24T03:49:54.813Z,5.83
2022-09-24T03:54:57.737Z,7.83
2022-09-24T04:00:00.671Z,7.40
2022-09-24T04:05:05.380Z,7.50
2022-09-24T04:10:09.530Z,7.80
2022-09-24T04:15:12.952Z,8.93
2022-09-24T04:20:17.419Z,7.97
2022-09-24T04:25:21.328Z,10.00
2022-09-24T04:30:25.538Z,8.13
2022-09-24T04:35:32.162Z,7.80
2022-09-24T04:40:35.385Z,8.47
2022-09-24T04:45:38.465Z,8.50
2022-09-24T04:50:46.122Z,8.13
2022-09-24T04:55:49.469Z,9.00
2022-09-24T05:00:53.354Z,8.90
2022-09-24T05:05:57.737Z,7.60
2022-09-24T05:11:02.202Z,8.70
2022-09-24T05:16:05.231Z,9.50
2022-09-24T05:21:09.650Z,7.33
2022-09-24T05:26:30.222Z,9.03
2022-09-24T05:31:33.218Z,8.40
2022-09-24T05:36:37.568Z,8.87
2022-09-24T05:41:41.174Z,8.50
2022-09-24T05:46:44.165Z,10.10
2022-09-24T05:51:50.654Z,14.93
2022-09-24T05:56:53.612Z,15.50
2022-09-24T06:01:56.578Z,12.70
2022-09-24T06:07:00.889Z,14.30
2022-09-24T06:12:04.220Z,12.07
2022-09-24T06:17:07.129Z,12.60
2022-09-24T06:22:11.411Z,12.83
2022-09-24T06:27:14.320Z,10.40
2022-09-24T06:32:17.673Z,12.27
2022-09-24T06:37:22.495Z,12.33
2022-09-24T06:42:25.553Z,9.13
2022-09-24T06:47:30.150Z,10.07
2022-09-24T06:52:34.453Z,11.90
2022-09-24T06:57:37.402Z,11.20
2022-09-24T07:02:40.467Z,11.37
2022-09-24T07:07:44.857Z,11.10
2022-09-24T07:12:47.817Z,13.47
2022-09-24T07:17:55.617Z,11.53
2022-09-24T07:23:00.198Z,10.97
2022-09-24T07:28:04.919Z,11.60
2022-09-24T07:33:08.446Z,14.03
2022-09-24T07:38:13.350Z,11.13
2022-09-24T07:43:16.342Z,10.17
2022-09-24T07:48:19.328Z,10.90
2022-09-24T07:53:24.231Z,6.90
2022-09-24T07:58:27.186Z,6.70
2022-09-24T08:03:30.162Z,9.83
2022-09-24T08:08:34.584Z,8.13
2022-09-24T08:13:38.060Z,8.47
2022-09-24T08:18:41.388Z,8.17
2022-09-24T08:23:45.882Z,6.13
2022-09-24T08:28:51.886Z,6.70
2022-09-24T08:33:55.193Z,8.07
2022-09-24T08:38:59.469Z,7.17
2022-09-24T08:44:05.569Z,7.20
2022-09-24T08:49:12.914Z,6.57
2022-09-24T08:54:17.282Z,5.30
2022-09-24T08:59:28.502Z,7.70
2022-09-24T09:04:41.539Z,7.70
2022-09-24T09:09:51.146Z,6.63
2022-09-24T09:15:00.632Z,5.50
2022-09-24T09:20:08.568Z,6.73
2022-09-24T09:25:25.881Z,6.00
2022-09-24T09:30:43.503Z,7.20
2022-09-24T09:35:56.338Z,6.53
2022-09-24T09:41:07.807Z,6.73
2022-09-24T09:46:17.086Z,7.47
2022-09-24T09:51:23.025Z,6.30
2022-09-24T09:56:30.408Z,9.13
2022-09-24T10:01:36.191Z,7.07
2022-09-24T10:06:39.143Z,9.20
2022-09-24T10:11:43.756Z,7.33
2022-09-24T10:16:51.957Z,8.73
2022-09-24T10:21:59.120Z,8.67
2022-09-24T10:27:12.933Z,5.57
2022-09-24T10:32:21.431Z,5.73
2022-09-24T10:37:24.523Z,5.40
2022-09-24T10:42:31.138Z,5.50
2022-09-24T10:47:43.674Z,7.60
2022-09-24T10:52:52.393Z,5.53
2022-09-24T10:58:04.489Z,5.53
2022-09-24T11:03:38.778Z,6.20
2022-09-24T11:08:59.625Z,5.80
2022-09-24T11:14:19.244Z,7.10
2022-09-24T11:19:40.373Z,6.17
2022-09-24T11:25:00.802Z,5.97
2022-09-24T11:30:13.276Z,7.20
2022-09-24T11:35:40.215Z,5.80
2022-09-24T11:40:59.559Z,4.73
2022-09-24T11:46:15.678Z,5.00
2022-09-24T11:51:29.389Z,9.23
2022-09-24T11:56:36.458Z,4.70
2022-09-24T12:01:47.979Z,6.27
2022-09-24T12:06:56.047Z,6.47
2022-09-24T12:12:05.989Z,5.03
2022-09-24T12:17:17.883Z,4.80
2022-09-24T12:22:22.954Z,5.33
2022-09-24T12:27:34.549Z,4.10
2022-09-24T12:32:57.185Z,4.40
2022-09-24T12:38:04.940Z,4.10
2022-09-24T12:43:19.446Z,3.60
2022-09-24T12:48:26.615Z,9.23
2022-09-24T12:53:35.666Z,9.63
2022-09-24T12:58:41.549Z,4.33
2022-09-24T13:03:47.678Z,6.10
2022-09-24T13:08:51.566Z,4.83
2022-09-24T13:14:02.566Z,5.30
2022-09-24T13:19:24.870Z,4.60
2022-09-24T13:24:30.320Z,4.57
2022-09-24T13:29:39.541Z,5.53
2022-09-24T13:34:47.245Z,5.67
2022-09-24T13:39:57.312Z,7.57
2022-09-24T13:45:07.437Z,4.87
2022-09-24T13:50:19.101Z,7.10
2022-09-24T13:55:26.192Z,7.13
2022-09-24T14:00:31.417Z,4.80
2022-09-24T14:05:37.789Z,4.60
2022-09-24T14:10:41.261Z,12.43
2022-09-24T14:15:55.165Z,4.53
2022-09-24T14:21:06.261Z,6.10
2022-09-24T14:26:13.762Z,3.97
2022-09-24T14:31:17.020Z,4.10
2022-09-24T14:36:27.875Z,6.50
2022-09-24T14:41:33.315Z,4.50
2022-09-24T14:46:41.047Z,5.10
2022-09-24T14:51:52.932Z,4.07
2022-09-24T14:56:56.469Z,7.30
2022-09-24T15:02:17.400Z,8.50
2022-09-24T15:07:25.051Z,15.13
2022-09-24T15:12:31.811Z,16.10
2022-09-24T15:17:36.242Z,13.03
2022-09-24T15:22:40.597Z,7.07
2022-09-24T15:27:43.912Z,9.20
2022-09-24T15:32:47.424Z,7.40
2022-09-24T15:37:52.518Z,5.20
2022-09-24T15:42:55.438Z,4.70
2022-09-24T15:47:58.787Z,4.90
2022-09-24T15:53:03.764Z,9.20
2022-09-24T15:58:19.090Z,13.13
2022-09-24T16:03:26.009Z,6.70
2022-09-24T16:08:30.330Z,8.03
2022-09-24T16:13:35.188Z,18.47
2022-09-24T16:18:39.801Z,78.80
2022-09-24T16:23:44.284Z,135.93
2022-09-24T16:28:47.477Z,29.10
2022-09-24T16:33:50.437Z,29.90
2022-09-24T16:38:54.757Z,61.97
2022-09-24T16:43:58.711Z,30.50
2022-09-24T16:49:01.634Z,16.50
2022-09-24T16:54:06.686Z,11.33
2022-09-24T16:59:11.354Z,21.60
2022-09-24T17:04:14.305Z,35.23
2022-09-24T17:09:35.817Z,29.27
2022-09-24T17:14:39.316Z,97.10
2022-09-24T17:19:42.268Z,34.90
2022-09-24T17:24:46.538Z,27.33
2022-09-24T17:29:49.452Z,17.23
2022-09-24T17:34:52.388Z,18.20
2022-09-24T17:39:57.499Z,15.10
2022-09-24T17:45:00.559Z,19.90
2022-09-24T17:50:03.464Z,18.63
2022-09-24T17:55:08.823Z,41.70
2022-09-24T18:00:12.722Z,35.00
2022-09-24T18:05:15.720Z,18.70
2022-09-24T18:10:20.049Z,25.03
2022-09-24T18:15:23.027Z,27.47
2022-09-24T18:20:27.106Z,17.83
2022-09-24T18:25:31.580Z,15.37
2022-09-24T18:30:34.577Z,14.30
2022-09-24T18:35:37.561Z,14.53
2022-09-24T18:40:42.003Z,16.07
2022-09-24T18:45:45.161Z,18.00
2022-09-24T18:50:48.140Z,19.27
2022-09-24T18:55:52.665Z,26.33
2022-09-24T19:00:59.380Z,23.53
2022-09-24T19:06:04.641Z,25.27
2022-09-24T19:11:14.066Z,38.30
2022-09-24T19:16:18.334Z,40.17
2022-09-24T19:21:23.130Z,52.80
2022-09-24T19:26:30.101Z,37.30
2022-09-24T19:31:35.926Z,20.87
2022-09-24T19:36:43.854Z,28.27
2022-09-24T19:41:52.839Z,20.53
2022-09-24T19:46:55.885Z,23.90
2022-09-24T19:51:58.829Z,27.70
2022-09-24T19:57:03.138Z,22.43
2022-09-24T20:02:06.111Z,17.23
2022-09-24T20:07:09.188Z,16.70
2022-09-24T20:12:16.997Z,15.90
2022-09-24T20:17:19.931Z,19.17
2022-09-24T20:22:22.840Z,33.80
2022-09-24T20:27:44.826Z,22.70
2022-09-24T20:32:47.952Z,19.47
2022-09-24T20:37:50.916Z,19.13
2022-09-24T20:42:55.284Z,18.83
2022-09-24T20:47:58.266Z,23.57
2022-09-24T20:53:01.446Z,16.37
2022-09-24T20:58:05.833Z,13.00
2022-09-24T21:03:25.863Z,14.73
2022-09-24T21:08:32.792Z,17.30
2022-09-24T21:13:41.177Z,17.77
2022-09-24T21:18:45.082Z,13.23
2022-09-24T21:23:49.745Z,18.90
2022-09-24T21:28:55.652Z,15.37
2022-09-24T21:33:59.113Z,17.53
2022-09-24T21:39:03.817Z,19.20
2022-09-24T21:44:10.227Z,18.87
2022-09-24T21:49:13.807Z,21.53
2022-09-24T21:54:18.886Z,21.63
2022-09-24T21:59:40.931Z,24.00
2022-09-24T22:04:44.411Z,24.37
2022-09-24T22:09:47.566Z,26.00
2022-09-24T22:14:52.376Z,25.73
2022-09-24T22:19:55.399Z,25.30
2022-09-24T22:24:58.343Z,25.57
2022-09-24T22:30:02.637Z,22.27
2022-09-24T22:35:23.849Z,25.03
2022-09-24T22:40:26.850Z,22.83
2022-09-24T22:45:31.212Z,22.10
2022-09-24T22:50:34.184Z,24.30
2022-09-24T22:55:37.097Z,21.50
2022-09-24T23:00:41.508Z,23.60
2022-09-24T23:05:45.275Z,21.37
2022-09-24T23:10:48.186Z,20.50
2022-09-24T23:15:52.516Z,25.60
2022-09-24T23:20:55.425Z,23.80
2022-09-24T23:26:05.020Z,22.27
2022-09-24T23:31:11.994Z,24.70
2022-09-24T23:36:16.373Z,24.57
2022-09-24T23:41:19.433Z,20.90
2022-09-24T23:46:23.881Z,20.30
2022-09-24T23:51:27.046Z,22.73
2022-09-24T23:56:30.026Z,21.13
